Time;durP1;ratioP1;P1;durP2;ratioP2;P2;SDS_P1;SDS_P2;PMS_P1;PMS_P2;Temp;Humidity;BMP_temperature;BMP_pressure;BME280_temperature;BME280_humidity;BME280_pressure;Samples;Min_cycle;Max_cycle;Signal;HPM_P1;HPM_P2
2022/06/12 00:00:37;;;;;;;2.75;2.55;;;;;;;20.00;55.31;96251.41;5047268;28;20306;-79
2022/06/12 00:03:08;;;;;;;2.88;2.58;;;;;;;20.01;55.05;96237.31;5038875;28;20234;-79
2022/06/12 00:05:37;;;;;;;4.65;2.58;;;;;;;20.08;55.05;96243.25;5055943;28;20190;-79
2022/06/12 00:08:06;;;;;;;3.15;2.60;;;;;;;20.08;54.55;96248.47;5057084;28;20206;-79
2022/06/12 00:10:33;;;;;;;4.35;2.50;;;;;;;20.10;54.18;96240.44;5048789;28;20237;-79
2022/06/12 00:13:00;;;;;;;4.93;2.85;;;;;;;20.08;54.13;96232.78;5035849;28;20280;-79
2022/06/12 00:15:30;;;;;;;2.30;2.20;;;;;;;20.00;54.59;96233.13;5043966;28;20217;-80
2022/06/12 00:17:57;;;;;;;3.35;2.33;;;;;;;19.98;54.80;96235.16;5057392;28;20210;-80
2022/06/12 00:20:25;;;;;;;4.30;2.42;;;;;;;19.97;54.50;96234.34;5037184;28;20605;-80
2022/06/12 00:22:52;;;;;;;2.30;2.10;;;;;;;20.07;54.50;96239.03;5035611;28;20230;-79
2022/06/12 00:25:21;;;;;;;3.53;2.28;;;;;;;20.07;54.35;96241.66;5043123;28;20257;-78
2022/06/12 00:27:47;;;;;;;2.53;2.33;;;;;;;20.09;54.33;96237.00;5057407;28;20201;-80
2022/06/12 00:30:17;;;;;;;2.67;2.47;;;;;;;20.08;54.30;96234.63;5039468;28;20237;-78
2022/06/12 00:32:49;;;;;;;2.42;2.22;;;;;;;20.11;54.53;96242.03;5036836;28;20242;-80
2022/06/12 00:35:16;;;;;;;2.50;2.30;;;;;;;20.11;54.57;96239.41;5047055;28;20213;-79
2022/06/12 00:37:45;;;;;;;3.35;2.28;;;;;;;20.08;54.91;96237.22;5036956;28;20268;-80
2022/06/12 00:40:13;;;;;;;2.60;2.40;;;;;;;20.07;54.87;96235.63;5051043;28;20243;-79
2022/06/12 00:42:43;;;;;;;2.90;2.70;;;;;;;20.01;55.20;96237.31;5056277;28;20709;-79
2022/06/12 00:45:39;;;;;;;2.55;2.30;;;;;;;20.00;55.38;96239.16;5045298;28;20277;-80
2022/06/12 00:48:08;;;;;;;2.90;2.70;;;;;;;19.98;55.13;96238.56;5055505;28;20227;-80
2022/06/12 00:50:38;;;;;;;2.80;2.60;;;;;;;19.92;55.39;96241.25;5037494;28;20218;-78
2022/06/12 00:53:07;;;;;;;2.53;2.33;;;;;;;19.93;55.13;96238.41;5035523;28;20856;-79
2022/06/12 00:55:40;;;;;;;2.55;2.35;;;;;;;19.90;55.10;96232.81;5044093;28;20214;-79
2022/06/12 00:58:10;;;;;;;6.53;2.50;;;;;;;19.88;55.08;96233.03;5035880;28;20206;-80
2022/06/12 01:00:39;;;;;;;2.85;2.65;;;;;;;19.85;55.10;96230.03;5050960;28;20221;-79
2022/06/12 01:03:06;;;;;;;2.78;2.58;;;;;;;19.87;55.40;96230.63;5054176;28;20225;-78
2022/06/12 01:08:20;;;;;;;3.53;2.60;;;;;;;19.79;55.60;96233.56;5038388;28;20200;-78
2022/06/12 01:10:49;;;;;;;2.40;2.20;;;;;;;19.78;55.67;96232.75;5054362;28;20229;-79
2022/06/12 01:13:19;;;;;;;2.88;2.22;;;;;;;19.74;55.80;96233.41;5041260;28;20288;-80
2022/06/12 01:15:49;;;;;;;2.55;2.35;;;;;;;19.73;55.59;96226.56;5042950;28;20216;-79
2022/06/12 01:18:20;;;;;;;2.67;2.47;;;;;;;19.71;55.72;96226.00;5055556;28;20197;-79
2022/06/12 01:20:54;;;;;;;2.83;2.63;;;;;;;19.65;56.14;96225.84;5034655;28;20312;-80
2022/06/12 01:24:08;;;;;;;6.30;2.20;;;;;;;19.64;55.96;96223.44;5034904;28;20234;-79
2022/06/12 01:27:03;;;;;;;2.70;2.50;;;;;;;19.61;56.06;96222.09;5044302;28;20715;-79
2022/06/12 01:29:36;;;;;;;3.58;2.63;;;;;;;19.59;55.87;96224.13;5045671;28;20214;-79
2022/06/12 01:32:08;;;;;;;3.05;2.67;;;;;;;19.58;55.99;96227.75;5034172;28;20206;-79
2022/06/12 01:34:40;;;;;;;2.47;2.28;;;;;;;19.57;56.09;96220.91;5043776;28;20201;-79
2022/06/12 01:37:22;;;;;;;2.60;2.40;;;;;;;19.51;56.12;96213.13;5054212;28;20201;-79
2022/06/12 01:39:57;;;;;;;2.45;2.25;;;;;;;19.51;56.02;96219.16;5044286;28;20586;-78
2022/06/12 01:42:31;;;;;;;4.45;2.78;;;;;;;19.52;55.76;96225.19;5033591;28;20225;-79
2022/06/12 01:45:11;;;;;;;2.60;2.30;;;;;;;19.54;55.65;96217.94;5043129;28;20197;-79
2022/06/12 01:47:47;;;;;;;3.10;2.30;;;;;;;19.46;55.73;96216.34;5046908;28;20201;-79
2022/06/12 01:50:18;;;;;;;3.17;1.98;;;;;;;19.44;55.55;96214.97;5054487;28;20699;-79
2022/06/12 01:52:56;;;;;;;2.40;2.20;;;;;;;19.44;55.74;96212.38;5041956;28;20233;-79
2022/06/12 01:55:28;;;;;;;2.30;2.10;;;;;;;19.43;55.62;96203.75;5036282;28;20252;-80
2022/06/12 01:58:02;;;;;;;2.53;2.35;;;;;;;19.47;55.66;96206.72;5044773;28;20661;-79
2022/06/12 02:00:30;;;;;;;2.53;2.33;;;;;;;19.44;55.93;96210.56;5056183;28;20221;-79
2022/06/12 02:03:02;;;;;;;5.03;2.30;;;;;;;19.32;56.55;96200.03;5057540;28;20812;-78
2022/06/12 02:05:33;;;;;;;2.95;2.50;;;;;;;19.28;56.43;96203.28;5057550;28;20194;-79
2022/06/12 02:08:05;;;;;;;2.70;2.40;;;;;;;19.31;56.39;96197.63;5059431;28;20271;-79
2022/06/12 02:10:37;;;;;;;3.08;2.38;;;;;;;19.30;56.33;96196.84;5049894;28;20214;-79
2022/06/12 02:13:13;;;;;;;2.75;2.33;;;;;;;19.29;56.44;96200.47;5037999;28;20280;-78
2022/06/12 02:15:49;;;;;;;3.92;2.22;;;;;;;19.34;56.29;96197.22;5047349;28;20267;-79
2022/06/12 02:18:23;;;;;;;2.88;2.20;;;;;;;19.29;56.14;96200.47;5053574;28;20269;-78
2022/06/12 02:20:57;;;;;;;2.30;2.20;;;;;;;19.28;56.12;96192.84;5038379;28;20249;-78
2022/06/12 02:23:30;;;;;;;4.13;2.50;;;;;;;19.28;56.11;96198.84;5042199;28;20232;-79
2022/06/12 02:25:57;;;;;;;2.72;2.53;;;;;;;19.30;56.11;96196.03;5046175;28;20244;-79
2022/06/12 02:28:29;;;;;;;3.08;2.35;;;;;;;19.15;56.99;96199.00;5041810;28;20193;-79
2022/06/12 02:31:03;;;;;;;2.60;2.30;;;;;;;19.11;57.33;96197.03;5047147;28;20272;-79
2022/06/12 02:33:35;;;;;;;2.50;2.30;;;;;;;19.12;57.19;96201.22;5042315;28;20221;-79
2022/06/12 02:36:07;;;;;;;2.22;2.08;;;;;;;19.09;57.22;96194.63;5045390;28;20279;-79
2022/06/12 02:38:39;;;;;;;2.50;2.30;;;;;;;19.16;56.47;96197.97;5042183;28;20680;-79
2022/06/12 02:41:10;;;;;;;2.90;2.30;;;;;;;19.11;57.06;96195.22;5057001;28;20225;-79
2022/06/12 02:43:41;;;;;;;2.60;2.40;;;;;;;19.14;56.53;96191.38;5052207;28;20312;-79
2022/06/12 02:46:13;;;;;;;2.53;2.33;;;;;;;19.14;56.44;96205.22;5050097;28;20201;-79
2022/06/12 02:48:40;;;;;;;2.67;2.33;;;;;;;19.19;56.04;96201.97;5052619;28;20201;-79
2022/06/12 02:51:12;;;;;;;3.42;2.40;;;;;;;19.21;56.08;96197.34;5037775;28;20309;-79
2022/06/12 02:53:50;;;;;;;3.90;2.25;;;;;;;19.22;56.14;96197.13;5040926;28;20225;-78
2022/06/12 02:56:21;;;;;;;2.97;2.10;;;;;;;19.15;56.32;96198.19;5043373;28;20701;-79
2022/06/12 02:58:56;;;;;;;2.42;2.22;;;;;;;19.16;56.55;96192.75;5042088;28;20197;-78
2022/06/12 03:01:31;;;;;;;2.45;2.22;;;;;;;19.16;56.25;96191.97;5057158;28;20756;-80
2022/06/12 03:04:07;;;;;;;2.40;2.20;;;;;;;19.18;56.30;96197.78;5056064;28;20228;-79
2022/06/12 03:06:34;;;;;;;2.30;2.20;;;;;;;19.13;56.38;96193.19;5041876;28;20190;-79
2022/06/12 03:09:02;;;;;;;2.47;2.28;;;;;;;19.13;56.29;96193.19;5042517;28;20604;-79
2022/06/12 03:11:33;;;;;;;2.70;2.45;;;;;;;19.13;56.52;96201.00;5055702;28;20204;-79
2022/06/12 03:13:59;;;;;;;2.63;2.40;;;;;;;19.12;56.75;96201.22;5052348;28;20218;-79
2022/06/12 03:16:29;;;;;;;3.63;2.30;;;;;;;19.09;56.49;96204.25;5051989;28;20221;-79
2022/06/12 03:19:00;;;;;;;2.30;2.17;;;;;;;19.14;56.32;96212.25;5054636;28;20190;-79
2022/06/12 03:21:38;;;;;;;3.58;2.20;;;;;;;19.13;56.10;96211.47;5036960;28;20749;-79
2022/06/12 03:24:23;;;;;;;2.35;2.10;;;;;;;19.10;56.49;96204.06;5041015;28;20695;-79
2022/06/12 03:27:01;;;;;;;2.42;2.22;;;;;;;19.11;56.29;96210.88;5037107;28;20194;-79
2022/06/12 03:29:37;;;;;;;2.20;2.10;;;;;;;19.10;56.61;96214.50;5042585;28;20625;-78
2022/06/12 03:32:14;;;;;;;2.28;2.15;;;;;;;19.05;56.54;96214.31;5040596;28;20275;-79
2022/06/12 03:34:47;;;;;;;2.40;2.30;;;;;;;19.09;56.30;96220.72;5043661;28;20546;-79
2022/06/12 03:37:19;;;;;;;2.28;2.08;;;;;;;19.07;56.68;96220.13;5050793;28;20218;-79
2022/06/12 03:39:55;;;;;;;2.53;2.30;;;;;;;19.15;57.31;96219.88;5048868;28;20312;-78
2022/06/12 03:42:30;;;;;;;4.30;2.67;;;;;;;19.11;56.72;96223.13;5044914;28;20229;-79
2022/06/12 03:45:02;;;;;;;2.60;2.40;;;;;;;19.02;56.79;96221.81;5045686;28;20194;-79
2022/06/12 03:47:36;;;;;;;2.22;2.03;;;;;;;18.88;57.01;96228.91;5043932;28;20190;-78
2022/06/12 03:50:13;;;;;;;2.22;2.13;;;;;;;18.86;57.25;96229.13;5056576;28;20214;-78
2022/06/12 03:52:48;;;;;;;2.08;1.98;;;;;;;18.86;57.19;96239.56;5042174;28;20237;-78
2022/06/12 03:57:50;;;;;;;2.47;2.13;;;;;;;18.82;57.04;96229.78;5049253;28;20217;-79
2022/06/12 03:58:16;;;;;;;2.08;1.98;;;;;;;18.85;57.35;96224.16;5037475;28;20212;-79
2022/06/12 04:00:45;;;;;;;2.30;2.15;;;;;;;18.86;57.07;96229.13;5054021;28;20281;-79
2022/06/12 04:03:16;;;;;;;2.55;2.05;;;;;;;18.89;56.78;96230.53;5050427;28;20676;-79
2022/06/12 04:05:47;;;;;;;2.28;2.10;;;;;;;18.89;56.60;96226.09;5054141;28;20575;-79
2022/06/12 04:08:18;;;;;;;2.22;2.13;;;;;;;18.87;56.92;96228.13;5054274;28;20263;-78
2022/06/12 04:10:45;;;;;;;3.47;2.60;;;;;;;18.95;56.91;96227.06;5038054;28;20218;-79
2022/06/12 04:13:14;;;;;;;3.72;2.35;;;;;;;19.00;57.05;96229.84;5040496;28;20318;-79
2022/06/12 04:15:46;;;;;;;2.25;2.15;;;;;;;19.06;56.42;96230.78;5047903;28;20255;-79
2022/06/12 04:18:15;;;;;;;2.50;2.30;;;;;;;19.09;56.62;96232.97;5046776;28;20284;-79
2022/06/12 04:20:54;;;;;;;2.22;2.10;;;;;;;19.11;56.48;96233.56;5044705;28;20214;-78
2022/06/12 04:23:28;;;;;;;3.95;2.13;;;;;;;19.18;56.28;96226.50;5051807;28;20229;-80
2022/06/12 04:25:57;;;;;;;3.33;2.20;;;;;;;19.24;56.49;96233.47;5037163;28;20258;-79
2022/06/12 04:28:28;;;;;;;2.10;1.90;;;;;;;19.28;56.10;96221.56;5043351;28;20649;-80
2022/06/12 04:30:56;;;;;;;2.30;2.10;;;;;;;19.34;55.99;96225.94;5051523;28;20209;-80
2022/06/12 04:33:42;;;;;;;2.42;2.22;;;;;;;19.40;56.14;96229.50;5053040;28;20217;-79
2022/06/12 04:36:10;;;;;;;2.50;2.30;;;;;;;19.46;56.02;96224.19;5043979;28;20224;-79
2022/06/12 04:38:37;;;;;;;2.38;2.20;;;;;;;19.53;56.02;96224.97;5049240;28;20251;-79
2022/06/12 04:41:05;;;;;;;3.45;2.10;;;;;;;19.54;56.65;96218.72;5043130;28;20224;-79
2022/06/12 04:43:32;;;;;;;2.72;2.05;;;;;;;19.60;55.78;96215.25;5035557;28;20265;-79
2022/06/12 04:45:58;;;;;;;2.17;2.08;;;;;;;19.64;55.75;96213.00;5035172;28;20268;-79
2022/06/12 04:48:30;;;;;;;2.25;2.05;;;;;;;19.73;55.58;96210.91;5035035;28;20202;-78
2022/06/12 04:50:56;;;;;;;2.75;2.17;;;;;;;19.77;55.73;96207.63;5034845;28;20458;-79
2022/06/12 04:53:23;;;;;;;2.67;2.25;;;;;;;19.84;55.13;96210.16;5034374;28;20230;-79
2022/06/12 04:55:49;;;;;;;2.33;2.13;;;;;;;19.90;55.29;96207.47;5035778;28;20251;-79
2022/06/12 04:58:16;;;;;;;2.00;1.90;;;;;;;20.00;55.26;96210.38;5035589;28;20242;-79
2022/06/12 05:00:42;;;;;;;2.75;2.15;;;;;;;20.12;55.00;96213.03;5034491;28;20338;-78
2022/06/12 05:03:09;;;;;;;2.55;2.00;;;;;;;20.19;54.90;96205.91;5037094;28;20240;-79
2022/06/12 05:05:36;;;;;;;2.25;2.15;;;;;;;20.19;54.82;96203.31;5055787;28;20209;-79
2022/06/12 05:08:03;;;;;;;2.10;2.00;;;;;;;20.22;54.64;96204.66;5055709;28;20689;-78
2022/06/12 05:10:30;;;;;;;2.00;1.90;;;;;;;20.25;54.43;96204.22;5056120;28;20224;-78
2022/06/12 05:12:56;;;;;;;2.50;2.30;;;;;;;20.33;54.39;96206.53;5055274;28;20229;-78
2022/06/12 05:15:23;;;;;;;2.20;2.00;;;;;;;20.42;54.09;96209.66;5056569;28;20193;-79
2022/06/12 05:17:52;;;;;;;2.25;2.10;;;;;;;20.46;53.94;96208.19;5056684;28;20255;-79
2022/06/12 05:20:21;;;;;;;1.90;1.80;;;;;;;20.51;54.20;96208.31;5055509;28;20229;-80
2022/06/12 05:22:50;;;;;;;2.45;2.25;;;;;;;20.57;54.06;96210.06;5055424;28;20236;-79
2022/06/12 05:25:18;;;;;;;2.13;2.03;;;;;;;20.69;53.75;96203.81;5055749;28;20209;-79
2022/06/12 05:27:46;;;;;;;3.13;2.15;;;;;;;20.77;53.70;96202.72;5055741;28;20198;-78
2022/06/12 05:30:14;;;;;;;2.33;1.88;;;;;;;20.86;53.45;96203.16;5054368;28;20592;-78
2022/06/12 05:32:42;;;;;;;1.98;1.88;;;;;;;20.92;53.78;96203.06;5054783;28;20748;-78
2022/06/12 05:35:09;;;;;;;2.10;2.00;;;;;;;20.98;53.67;96203.97;5054749;28;20669;-78
2022/06/12 05:37:37;;;;;;;2.17;2.08;;;;;;;21.04;53.26;96201.25;5055885;28;20221;-80
2022/06/12 05:40:10;;;;;;;2.40;2.20;;;;;;;21.15;53.29;96206.75;5054627;28;20225;-79
2022/06/12 05:42:36;;;;;;;2.20;2.10;;;;;;;21.15;52.95;96215.38;5055271;28;20263;-79
2022/06/12 05:45:04;;;;;;;2.10;2.00;;;;;;;21.19;53.07;96210.47;5054714;28;20201;-79
2022/06/12 05:47:30;;;;;;;2.80;2.50;;;;;;;21.23;53.33;96212.44;5055355;28;20193;-79
2022/06/12 05:49:57;;;;;;;1.80;1.70;;;;;;;21.26;53.24;96209.38;5055059;28;20651;-79
2022/06/12 05:52:23;;;;;;;2.15;1.95;;;;;;;21.30;52.95;96209.72;5053232;28;20229;-78
2022/06/12 05:54:50;;;;;;;2.13;1.88;;;;;;;21.30;53.00;96209.72;5055936;28;20683;-79
2022/06/12 05:57:18;;;;;;;1.90;1.80;;;;;;;21.27;52.48;96200.50;5055656;28;20225;-79
2022/06/12 05:59:44;;;;;;;2.40;2.20;;;;;;;21.24;52.53;96195.72;5055746;28;20225;-78
2022/06/12 06:02:11;;;;;;;1.85;1.75;;;;;;;21.28;52.70;96209.16;5054620;28;20236;-79
2022/06/12 06:04:38;;;;;;;2.38;1.90;;;;;;;21.32;53.00;96205.06;5054941;28;20205;-78
2022/06/12 06:07:05;;;;;;;2.45;2.03;;;;;;;21.43;52.97;96203.44;5054600;28;20208;-79
2022/06/12 06:09:31;;;;;;;2.10;2.00;;;;;;;21.51;52.69;96200.47;5054993;28;20233;-79
2022/06/12 06:11:58;;;;;;;2.58;1.80;;;;;;;21.49;51.90;96205.16;5053215;28;20205;-79
2022/06/12 06:14:26;;;;;;;3.80;1.92;;;;;;;21.44;51.78;96205.03;5055051;28;20267;-79
2022/06/12 06:16:52;;;;;;;2.55;2.03;;;;;;;21.51;52.07;96209.16;5054897;28;20259;-78
2022/06/12 06:19:19;;;;;;;2.00;1.90;;;;;;;21.53;51.57;96207.09;5054915;28;20216;-80
2022/06/12 06:21:45;;;;;;;1.90;1.80;;;;;;;21.56;51.74;96211.84;5055793;28;20202;-78
2022/06/12 06:24:13;;;;;;;5.78;2.10;;;;;;;21.62;51.90;96207.53;5055977;28;20205;-79
2022/06/12 06:26:40;;;;;;;2.15;1.80;;;;;;;21.74;51.84;96215.38;5055529;28;20205;-79
2022/06/12 06:29:08;;;;;;;2.30;2.10;;;;;;;21.84;52.17;96212.94;5055432;28;20248;-79
2022/06/12 06:31:36;;;;;;;1.95;1.85;;;;;;;21.95;51.80;96206.88;5053700;28;20201;-78
2022/06/12 06:34:03;;;;;;;2.28;2.10;;;;;;;22.02;51.66;96212.81;5054692;28;20233;-78
2022/06/12 06:36:29;;;;;;;2.38;1.90;;;;;;;22.15;51.13;96215.16;5055194;28;20638;-79
2022/06/12 06:38:57;;;;;;;2.38;2.20;;;;;;;22.17;50.67;96213.09;5056439;28;20233;-79
2022/06/12 06:41:25;;;;;;;2.60;1.80;;;;;;;22.22;50.47;96215.03;5054297;28;20221;-80
2022/06/12 06:46:38;;;;;;;1.98;1.88;;;;;;;22.29;49.73;96215.72;5058084;28;20196;-79
2022/06/12 06:49:05;;;;;;;1.90;1.80;;;;;;;22.31;49.42;96222.31;5058643;28;20240;-78
2022/06/12 06:51:32;;;;;;;2.38;2.17;;;;;;;22.32;49.06;96215.25;5058252;28;20202;-79
2022/06/12 06:53:59;;;;;;;2.00;1.80;;;;;;;22.39;49.58;96214.06;5056773;28;20340;-79
2022/06/12 06:56:26;;;;;;;1.80;1.70;;;;;;;22.45;49.38;96212.31;5058883;28;20201;-78
2022/06/12 06:58:53;;;;;;;2.00;1.90;;;;;;;22.52;49.27;96212.16;5059077;28;20293;-79
2022/06/12 07:01:20;;;;;;;2.00;1.90;;;;;;;22.61;49.54;96211.56;5058657;28;20225;-79
2022/06/12 07:03:47;;;;;;;2.55;1.90;;;;;;;22.71;49.69;96209.09;5058280;28;20275;-79
2022/06/12 07:06:16;;;;;;;3.08;2.17;;;;;;;22.80;48.79;96208.75;5059028;28;20611;-78
2022/06/12 07:08:42;;;;;;;2.00;1.80;;;;;;;22.90;49.24;96209.69;5059060;28;20228;-79
2022/06/12 07:11:09;;;;;;;2.20;2.00;;;;;;;22.91;48.20;96210.47;5057829;28;20343;-79
2022/06/12 07:13:36;;;;;;;2.03;1.92;;;;;;;22.97;48.42;96212.16;5058204;28;20252;-79
2022/06/12 07:16:02;;;;;;;2.00;1.90;;;;;;;23.00;48.32;96215.13;5059504;28;20225;-80
2022/06/12 07:18:28;;;;;;;2.00;1.90;;;;;;;23.09;49.45;96213.66;5058772;28;20742;-78
2022/06/12 07:21:01;;;;;;;2.10;1.90;;;;;;;23.21;49.17;96210.16;5058762;28;20221;-79
2022/06/12 07:23:30;;;;;;;2.00;1.90;;;;;;;23.22;47.95;96209.94;5058984;28;20232;-79
2022/06/12 07:25:59;;;;;;;1.85;1.75;;;;;;;23.30;48.10;96209.50;5059318;28;20263;-79
2022/06/12 07:28:27;;;;;;;2.00;1.80;;;;;;;23.41;47.91;96210.47;5059274;28;20277;-80
2022/06/12 07:30:54;;;;;;;3.33;1.85;;;;;;;23.45;47.53;96205.53;5057375;28;20308;-79
2022/06/12 07:33:21;;;;;;;1.95;1.85;;;;;;;23.54;47.66;96214.59;5057912;28;20244;-79
2022/06/12 07:35:48;;;;;;;2.42;2.00;;;;;;;23.58;47.27;96206.00;5058676;28;20202;-79
2022/06/12 07:38:19;;;;;;;3.47;2.10;;;;;;;23.68;46.56;96207.94;5058257;28;20283;-79
2022/06/12 07:40:49;;;;;;;2.10;1.90;;;;;;;23.76;46.42;96205.69;5058203;28;20283;-79
2022/06/12 07:43:16;;;;;;;1.98;1.88;;;;;;;23.85;46.40;96200.81;5058298;28;20236;-79
2022/06/12 07:45:44;;;;;;;1.83;1.73;;;;;;;24.02;45.53;96200.75;5058621;28;20255;-79
2022/06/12 07:48:11;;;;;;;6.40;5.80;;;;;;;24.15;45.54;96200.38;5057554;28;20236;-79
2022/06/12 07:50:41;;;;;;;3.70;2.28;;;;;;;24.27;43.80;96197.63;5056529;28;20221;-80
2022/06/12 07:53:09;;;;;;;2.33;2.13;;;;;;;24.38;43.50;96199.31;5057309;28;20228;-79
2022/06/12 07:55:37;;;;;;;2.10;1.90;;;;;;;24.45;43.03;96194.63;5058341;28;20328;-79
2022/06/12 07:58:04;;;;;;;2.28;1.90;;;;;;;24.55;41.63;96199.22;5057682;28;20605;-79
2022/06/12 08:00:30;;;;;;;2.95;1.90;;;;;;;24.55;40.22;96197.38;5057033;28;20655;-79
2022/06/12 08:02:57;;;;;;;3.20;1.75;;;;;;;24.62;40.78;96199.81;5057338;28;20225;-79
2022/06/12 08:05:24;;;;;;;2.25;1.73;;;;;;;24.66;40.15;96199.06;5056772;28;20197;-79
2022/06/12 08:07:50;;;;;;;1.92;1.75;;;;;;;24.77;40.44;96203.38;5057740;28;20202;-79
2022/06/12 08:10:17;;;;;;;2.55;1.65;;;;;;;24.90;40.36;96199.53;5057136;28;20275;-79
2022/06/12 08:12:47;;;;;;;2.20;2.00;;;;;;;25.05;40.31;96212.84;5056123;28;20233;-79
2022/06/12 08:15:21;;;;;;;1.73;1.63;;;;;;;25.19;39.17;96204.53;5056746;28;20201;-79
2022/06/12 08:17:49;;;;;;;2.08;1.77;;;;;;;25.35;39.85;96199.09;5057052;28;20223;-80
2022/06/12 08:20:25;;;;;;;2.42;1.70;;;;;;;25.48;39.86;96196.00;5059062;28;20221;-78
2022/06/12 08:22:52;;;;;;;2.05;1.60;;;;;;;25.57;38.61;96198.94;5058200;28;20260;-79
2022/06/12 08:25:18;;;;;;;1.90;1.70;;;;;;;25.62;38.87;96196.34;5056209;28;20604;-79
2022/06/12 08:27:46;;;;;;;2.30;1.63;;;;;;;25.75;38.63;96198.53;5056563;28;20198;-79
2022/06/12 08:30:13;;;;;;;4.32;2.05;;;;;;;25.86;39.19;96201.22;5055273;28;20275;-79
2022/06/12 08:32:42;;;;;;;1.70;1.60;;;;;;;25.88;37.80;96196.47;5055375;28;20248;-80
2022/06/12 08:35:12;;;;;;;2.50;1.85;;;;;;;25.97;39.67;96200.22;5056328;28;20209;-78
2022/06/12 08:37:40;;;;;;;2.10;1.67;;;;;;;25.91;37.34;96194.13;5056458;28;20221;-79
2022/06/12 08:40:17;;;;;;;2.15;1.95;;;;;;;26.05;37.29;96197.06;5055494;28;20613;-79
2022/06/12 08:42:55;;;;;;;2.10;2.00;;;;;;;26.24;36.38;96189.47;5055904;28;20228;-80
2022/06/12 08:45:25;;;;;;;2.20;2.00;;;;;;;26.37;37.16;96191.63;5056713;28;20208;-79
2022/06/12 08:47:58;;;;;;;1.98;1.88;;;;;;;26.46;35.97;96188.22;5056775;28;20201;-80
2022/06/12 08:50:30;;;;;;;2.90;1.45;;;;;;;26.54;36.56;96194.84;5055496;28;20263;-78
2022/06/12 08:53:00;;;;;;;1.88;1.77;;;;;;;26.67;36.53;96193.53;5054286;28;20225;-79
2022/06/12 08:55:34;;;;;;;2.00;1.60;;;;;;;26.79;35.72;96189.56;5055868;28;20805;-79
2022/06/12 08:58:09;;;;;;;2.65;1.60;;;;;;;26.91;35.53;96194.59;5055637;28;20229;-79
2022/06/12 09:00:38;;;;;;;2.00;1.63;;;;;;;27.04;35.79;96185.38;5054200;28;20274;-79
2022/06/12 09:03:05;;;;;;;2.00;1.80;;;;;;;27.15;36.82;96187.72;5054212;28;20225;-79
2022/06/12 09:05:41;;;;;;;1.92;1.50;;;;;;;27.23;34.86;96178.47;5055033;28;20673;-79
2022/06/12 09:08:14;;;;;;;2.28;1.67;;;;;;;27.32;35.43;96179.53;5056127;28;20246;-79
2022/06/12 09:10:43;;;;;;;2.10;1.70;;;;;;;27.40;35.01;96183.44;5054477;28;20282;-79
2022/06/12 09:13:19;;;;;;;3.03;1.90;;;;;;;27.43;34.85;96177.63;5055684;28;20237;-80
2022/06/12 09:15:57;;;;;;;1.75;1.65;;;;;;;27.50;34.58;96175.50;5055993;28;20227;-80
2022/06/12 09:18:37;;;;;;;1.70;1.60;;;;;;;27.52;32.79;96176.00;5056376;28;20704;-80
2022/06/12 09:21:09;;;;;;;2.30;1.80;;;;;;;27.60;33.91;96175.50;5054145;28;20225;-79
2022/06/12 09:23:41;;;;;;;1.60;1.50;;;;;;;27.76;32.84;96165.63;5053717;28;20225;-79
2022/06/12 09:26:17;;;;;;;1.80;1.70;;;;;;;27.85;33.45;96167.47;5055014;28;20206;-80
2022/06/12 09:28:53;;;;;;;2.08;1.50;;;;;;;27.98;31.86;96166.06;5054251;28;20288;-79
2022/06/12 09:31:28;;;;;;;2.65;1.45;;;;;;;28.04;31.51;96153.59;5053084;28;20217;-79
2022/06/12 09:34:05;;;;;;;1.60;1.50;;;;;;;28.06;32.01;96149.63;5053458;28;20228;-79
2022/06/12 09:36:47;;;;;;;4.00;1.60;;;;;;;28.23;31.27;96153.81;5053829;28;20262;-80
2022/06/12 09:39:32;;;;;;;2.88;1.50;;;;;;;28.24;33.04;96158.03;5054000;28;20221;-80
2022/06/12 09:42:09;;;;;;;2.17;1.80;;;;;;;28.38;32.45;96157.13;5052836;28;20231;-79
2022/06/12 09:44:46;;;;;;;1.70;1.60;;;;;;;28.39;32.05;96152.63;5054340;28;20208;-79
2022/06/12 09:47:21;;;;;;;1.30;1.30;;;;;;;28.35;31.05;96151.59;5054098;28;20205;-80
2022/06/12 09:50:01;;;;;;;1.83;1.73;;;;;;;28.48;31.75;96151.00;5054089;28;20216;-80
2022/06/12 09:52:49;;;;;;;1.77;1.60;;;;;;;28.49;31.74;96148.03;5053046;28;20224;-79
2022/06/12 09:55:20;;;;;;;2.30;1.55;;;;;;;28.60;31.92;96143.47;5053318;28;20201;-79
2022/06/12 09:57:52;;;;;;;1.80;1.70;;;;;;;28.52;31.04;96144.84;5055014;28;20312;-79
2022/06/12 10:00:26;;;;;;;1.52;1.42;;;;;;;28.46;29.78;96147.81;5054931;28;20221;-79
2022/06/12 10:03:00;;;;;;;2.85;1.50;;;;;;;28.50;30.27;96135.59;5054043;28;20232;-80
2022/06/12 10:05:32;;;;;;;1.45;1.35;;;;;;;28.69;30.29;96133.84;5054187;28;20205;-79
2022/06/12 10:08:06;;;;;;;1.55;1.45;;;;;;;28.75;30.97;96135.38;5054798;28;20205;-79
2022/06/12 10:10:39;;;;;;;1.50;1.40;;;;;;;28.79;28.76;96127.69;5054302;28;20278;-79
2022/06/12 10:13:10;;;;;;;2.13;1.40;;;;;;;28.87;27.98;96119.13;5054317;28;20303;-79
2022/06/12 10:15:41;;;;;;;2.00;1.63;;;;;;;28.85;29.22;96122.09;5055353;28;20263;-79
2022/06/12 10:18:15;;;;;;;1.98;1.30;;;;;;;28.96;28.88;96117.47;5055717;28;20696;-80
2022/06/12 10:20:47;;;;;;;1.60;1.35;;;;;;;28.97;28.59;96111.09;5056085;28;20225;-80
2022/06/12 10:23:14;;;;;;;1.73;1.60;;;;;;;29.04;27.94;96106.25;5058308;28;20592;-80
2022/06/12 10:25:47;;;;;;;1.60;1.40;;;;;;;29.11;27.74;96105.91;5059737;28;20669;-79
2022/06/12 10:28:24;;;;;;;1.55;1.40;;;;;;;29.18;28.47;96109.81;5059128;28;20193;-80
2022/06/12 10:31:08;;;;;;;1.50;1.40;;;;;;;29.30;28.89;96101.47;5058351;28;20224;-80
2022/06/12 10:33:46;;;;;;;1.58;1.48;;;;;;;29.48;29.58;96103.41;5058675;28;20862;-80
2022/06/12 10:36:21;;;;;;;2.13;1.52;;;;;;;29.61;28.84;96093.19;5058760;28;20616;-80
2022/06/12 10:38:47;;;;;;;1.48;1.38;;;;;;;29.65;29.53;96100.28;5058958;28;20271;-79
2022/06/12 10:41:22;;;;;;;2.42;2.22;;;;;;;29.63;28.85;96091.84;5057730;28;20263;-79
2022/06/12 10:43:51;;;;;;;3.33;3.05;;;;;;;29.78;29.68;96093.50;5057839;28;20589;-79
2022/06/12 10:46:24;;;;;;;4.68;4.15;;;;;;;29.83;29.42;96088.88;5058694;28;20197;-79
2022/06/12 10:48:59;;;;;;;2.28;2.10;;;;;;;29.99;30.17;96084.22;5057562;28;20209;-79
2022/06/12 10:51:29;;;;;;;1.50;1.40;;;;;;;30.06;28.48;96083.81;5057634;28;20282;-79
2022/06/12 10:53:58;;;;;;;1.65;1.55;;;;;;;30.04;27.41;96088.63;5056279;28;20233;-80
2022/06/12 10:56:30;;;;;;;1.40;1.30;;;;;;;30.09;28.64;96091.22;5057354;28;20232;-79
2022/06/12 10:59:18;;;;;;;5.05;1.60;;;;;;;30.20;29.61;96080.19;5057560;28;20279;-79
2022/06/12 11:01:57;;;;;;;1.50;1.40;;;;;;;30.33;28.23;96086.63;5056185;28;20255;-80
2022/06/12 11:04:34;;;;;;;1.40;1.30;;;;;;;30.36;27.96;96071.97;5056855;28;20768;-80
2022/06/12 11:07:12;;;;;;;1.83;1.50;;;;;;;30.42;26.32;96071.56;5056928;28;20259;-79
2022/06/12 11:09:52;;;;;;;1.27;1.10;;;;;;;30.38;26.18;96067.94;5057468;28;20318;-80
2022/06/12 11:12:33;;;;;;;1.33;1.23;;;;;;;30.35;26.17;96060.53;5055662;28;20298;-79
2022/06/12 11:15:27;;;;;;;1.30;1.20;;;;;;;30.37;25.89;96055.72;5057374;28;20204;-79
2022/06/12 11:18:05;;;;;;;1.45;1.25;;;;;;;30.24;24.75;96059.09;5038396;28;20320;-80
2022/06/12 11:20:40;;;;;;;1.40;1.30;;;;;;;30.27;25.46;96055.09;5056057;28;20225;-80
2022/06/12 11:23:22;;;;;;;1.20;1.10;;;;;;;30.09;23.93;96051.38;5057400;28;20232;-79
2022/06/12 11:26:02;;;;;;;1.77;1.00;;;;;;;30.21;23.37;96041.13;5056917;28;20259;-80
2022/06/12 11:28:44;;;;;;;1.10;1.10;;;;;;;30.33;23.51;96044.09;5057000;28;20197;-80
2022/06/12 11:31:22;;;;;;;1.20;1.10;;;;;;;30.48;24.10;96043.06;5056070;28;20923;-79
2022/06/12 11:34:04;;;;;;;1.60;1.17;;;;;;;30.31;23.92;96035.63;5055639;28;20229;-79
2022/06/12 11:36:38;;;;;;;1.70;1.35;;;;;;;30.21;24.09;96031.25;5057326;28;20205;-80
2022/06/12 11:39:26;;;;;;;1.17;1.10;;;;;;;30.33;23.50;96032.69;5057766;28;20279;-79
2022/06/12 11:42:13;;;;;;;1.20;1.10;;;;;;;30.29;23.02;96026.38;5056268;28;20284;-80
2022/06/12 11:44:50;;;;;;;1.42;1.17;;;;;;;30.38;22.95;96028.06;5057060;28;20226;-79
2022/06/12 11:47:26;;;;;;;1.30;1.20;;;;;;;30.41;22.80;96016.84;5056452;28;20292;-80
2022/06/12 11:50:11;;;;;;;1.00;1.00;;;;;;;30.45;23.33;96017.06;5057316;28;20275;-80
2022/06/12 11:52:51;;;;;;;1.42;1.13;;;;;;;30.61;23.89;96013.06;5054662;28;20233;-79
2022/06/12 11:55:28;;;;;;;1.30;1.20;;;;;;;30.62;23.33;96016.53;5057278;28;20209;-80
2022/06/12 11:58:03;;;;;;;1.17;1.10;;;;;;;30.55;22.76;96014.25;5058219;28;20201;-80
2022/06/12 12:00:41;;;;;;;1.23;1.13;;;;;;;30.41;22.89;96014.19;5058025;28;20229;-80